NCAR-RAP Real-Time Weather Data

Output produced by METARs form (24 April 2018  16:20 UTC)
found at http://weather.rap.ucar.edu/surface/
 
RJCW 240900Z 11004KT CAVOK 09/04 Q1015
RJCW 240800Z 03008KT CAVOK 09/04 Q1016
RJCW 240700Z 01008KT CAVOK 09/05 Q1016
RJCW 240600Z 02007KT CAVOK 09/05 Q1016
RJCW 240500Z 01009KT CAVOK 10/04 Q1017
RJCW 240400Z 35010KT CAVOK 11/05 Q1017
RJCW 240300Z 34009KT CAVOK 12/04 Q1017
RJCW 240200Z 36007KT CAVOK 12/03 Q1018
RJCW 240100Z 34007KT CAVOK 11/04 Q1019
RJCW 240000Z 24004KT 170V300 CAVOK 12/03 Q1019
RJCW 232330Z 22004KT 160V260 CAVOK 11/02 Q1020
RJCW 230900Z 02003KT CAVOK 07/03 Q1023
RJCW 230800Z 35004KT 310V010 CAVOK 07/04 Q1023
RJCW 230700Z 33007KT 9999 FEW020 08/04 Q1024
RJCW 230600Z 33006KT 9999 FEW020 08/04 Q1024
RJCW 230500Z 35005KT 9999 FEW020 07/03 Q1025
RJCW 230400Z 35008KT 9999 FEW020 08/04 Q1025
RJCW 230300Z 34009KT 9999 FEW020 08/03 Q1025
RJCW 230200Z 33008KT 9999 FEW020 08/03 Q1026
RJCW 230100Z 33008KT 9999 FEW015 08/03 Q1026
RJCW 230000Z 32007KT 9999 FEW015 08/04 Q1026
RJCW 222330Z 32007KT 9999 FEW010 07/03 Q1026
RJCW 220900Z 36005KT 9999 FEW050 05/01 Q1022
RJCW 220800Z 01005KT 9999 FEW020 05/01 Q1022
RJCW 220700Z 36005KT 320V040 9999 FEW025 06/01 Q1022
RJCW 220600Z 36008KT 9999 FEW025 06/02 Q1022
RJCW 220500Z 35008KT 9999 FEW020 07/03 Q1022